createdAt,value
2022-12-26T00:00:18.370Z,5.10
2022-12-26T00:03:07.654Z,5.14
2022-12-26T00:05:58.672Z,5.09
2022-12-26T00:08:48.662Z,5.04
2022-12-26T00:11:39.390Z,5.05
2022-12-26T00:14:28.764Z,5.14
2022-12-26T00:17:19.403Z,5.11
2022-12-26T00:20:10.062Z,5.13
2022-12-26T00:22:59.501Z,4.98
2022-12-26T00:25:48.825Z,5.01
2022-12-26T00:28:38.815Z,4.98
2022-12-26T00:31:30.911Z,4.98
2022-12-26T00:34:21.696Z,4.96
2022-12-26T00:37:11.630Z,4.90
2022-12-26T00:40:00.892Z,4.93
2022-12-26T00:42:50.396Z,4.88
2022-12-26T00:45:39.759Z,4.97
2022-12-26T00:48:29.226Z,4.90
2022-12-26T00:51:20.220Z,4.94
2022-12-26T00:54:09.471Z,4.93
2022-12-26T00:56:58.697Z,4.95
2022-12-26T00:59:47.847Z,4.93
2022-12-26T01:02:40.438Z,4.90
2022-12-26T01:05:30.277Z,4.84
2022-12-26T01:08:24.833Z,4.86
2022-12-26T01:11:36.560Z,4.84
2022-12-26T01:14:25.774Z,4.77
2022-12-26T01:17:15.122Z,4.92
2022-12-26T01:20:04.778Z,4.93
2022-12-26T01:22:54.722Z,4.96
2022-12-26T01:26:18.985Z,5.04
2022-12-26T01:28:54.855Z,5.02
2022-12-26T01:31:44.112Z,5.05
2022-12-26T01:34:33.622Z,5.13
2022-12-26T01:37:24.081Z,5.02
2022-12-26T01:40:14.561Z,5.18
2022-12-26T01:43:05.183Z,5.19
2022-12-26T01:45:54.786Z,5.23
2022-12-26T01:48:44.153Z,5.30
2022-12-26T01:51:38.379Z,5.30
2022-12-26T01:54:40.048Z,5.31
2022-12-26T01:57:37.718Z,5.35
2022-12-26T02:00:28.820Z,5.46
2022-12-26T02:03:36.890Z,5.46
2022-12-26T02:06:26.312Z,5.51
2022-12-26T02:09:15.547Z,5.49
2022-12-26T02:12:37.218Z,5.46
2022-12-26T02:15:23.970Z,5.51
2022-12-26T02:18:14.687Z,5.56
2022-12-26T02:21:37.851Z,5.48
2022-12-26T02:24:51.370Z,5.52
2022-12-26T02:28:10.544Z,5.52
2022-12-26T02:31:07.312Z,5.52
2022-12-26T02:34:09.331Z,5.49
2022-12-26T02:37:12.831Z,5.55
2022-12-26T02:40:21.613Z,5.53
2022-12-26T02:43:23.247Z,5.49
2022-12-26T02:46:53.022Z,5.42
2022-12-26T02:50:22.818Z,5.25
2022-12-26T02:53:39.576Z,5.25
2022-12-26T02:56:51.310Z,5.18
2022-12-26T03:00:10.904Z,5.14
2022-12-26T03:03:22.899Z,5.21
2022-12-26T03:06:36.099Z,5.18
2022-12-26T03:09:47.893Z,5.07
2022-12-26T03:13:00.868Z,5.07
2022-12-26T03:16:15.028Z,4.95
2022-12-26T03:19:12.318Z,5.04
2022-12-26T03:22:23.509Z,5.00
2022-12-26T03:25:36.991Z,4.93
2022-12-26T03:28:27.135Z,5.02
2022-12-26T03:31:16.516Z,4.97
2022-12-26T03:34:20.699Z,4.85
2022-12-26T03:37:47.663Z,4.74
2022-12-26T03:41:10.049Z,4.85
2022-12-26T03:44:34.233Z,4.92
2022-12-26T03:47:53.424Z,4.89
2022-12-26T03:51:06.339Z,4.87
2022-12-26T03:54:21.848Z,4.88
2022-12-26T03:57:35.407Z,4.93
2022-12-26T04:00:42.349Z,4.91
2022-12-26T04:03:52.767Z,4.92
2022-12-26T04:07:08.075Z,4.92
2022-12-26T04:10:21.886Z,4.85
2022-12-26T04:13:38.536Z,4.93
2022-12-26T04:16:59.496Z,4.80
2022-12-26T04:20:03.551Z,4.90
2022-12-26T04:23:17.184Z,4.92
2022-12-26T04:26:27.226Z,4.96
2022-12-26T04:29:34.434Z,4.98
2022-12-26T04:32:53.214Z,4.95
2022-12-26T04:36:08.322Z,4.95
2022-12-26T04:39:21.852Z,4.91
2022-12-26T04:42:31.080Z,4.92
2022-12-26T04:45:22.100Z,4.90
2022-12-26T04:48:30.692Z,4.88
2022-12-26T04:51:19.884Z,4.77
2022-12-26T04:54:10.765Z,4.85
2022-12-26T04:57:00.026Z,4.94
2022-12-26T04:59:49.301Z,4.87
2022-12-26T05:02:55.894Z,4.86
2022-12-26T05:06:05.795Z,4.81
2022-12-26T05:09:12.613Z,4.94
2022-12-26T05:12:03.663Z,4.84
2022-12-26T05:14:52.872Z,4.97
2022-12-26T05:17:59.344Z,4.93
2022-12-26T05:21:05.640Z,4.98
2022-12-26T05:24:12.011Z,5.07
2022-12-26T05:27:20.111Z,5.09
2022-12-26T05:30:10.732Z,5.07
2022-12-26T05:33:17.100Z,5.08
2022-12-26T05:36:06.970Z,5.02
2022-12-26T05:38:56.973Z,5.04
2022-12-26T05:41:46.339Z,4.95
2022-12-26T05:44:37.649Z,4.98
2022-12-26T05:47:26.904Z,4.95
2022-12-26T05:50:16.291Z,4.98
2022-12-26T05:53:05.615Z,4.96
2022-12-26T05:55:54.987Z,4.92
2022-12-26T05:58:44.467Z,5.03
2022-12-26T06:01:35.239Z,5.02
2022-12-26T06:04:24.840Z,4.99
2022-12-26T06:07:14.040Z,4.95
2022-12-26T06:10:03.327Z,4.98
2022-12-26T06:12:53.927Z,4.94
2022-12-26T06:15:43.214Z,4.86
2022-12-26T06:18:33.905Z,4.89
2022-12-26T06:21:25.344Z,4.94
2022-12-26T06:24:15.355Z,4.97
2022-12-26T06:27:04.794Z,4.98
2022-12-26T06:29:54.029Z,5.00
2022-12-26T06:32:43.277Z,5.01
2022-12-26T06:35:35.727Z,5.04
2022-12-26T06:38:24.902Z,4.94
2022-12-26T06:41:17.269Z,4.90
2022-12-26T06:44:06.899Z,5.04
2022-12-26T06:46:56.167Z,5.04
2022-12-26T06:49:45.569Z,4.94
2022-12-26T06:52:36.208Z,5.00
2022-12-26T06:55:25.463Z,5.04
2022-12-26T06:58:15.979Z,4.99
2022-12-26T07:01:09.977Z,5.02
2022-12-26T07:04:00.260Z,4.96
2022-12-26T07:06:49.569Z,5.11
2022-12-26T07:09:40.175Z,5.12
2022-12-26T07:12:29.347Z,5.14
2022-12-26T07:15:18.803Z,5.17
2022-12-26T07:18:08.031Z,5.09
2022-12-26T07:20:57.301Z,5.12
2022-12-26T07:23:46.655Z,4.94
2022-12-26T07:26:37.247Z,4.84
2022-12-26T07:29:27.033Z,4.91
2022-12-26T07:32:16.398Z,4.91
2022-12-26T07:35:06.753Z,4.94
2022-12-26T07:37:56.199Z,4.98
2022-12-26T07:40:45.686Z,4.94
2022-12-26T07:43:36.371Z,5.00
2022-12-26T07:46:25.704Z,4.97
2022-12-26T07:49:15.425Z,4.94
2022-12-26T07:52:04.798Z,4.96
2022-12-26T07:54:54.121Z,5.08
2022-12-26T07:57:50.527Z,4.95
2022-12-26T08:00:41.353Z,5.00
2022-12-26T08:03:30.786Z,5.13
2022-12-26T08:06:20.803Z,5.07
2022-12-26T08:09:15.983Z,4.99
2022-12-26T08:12:05.625Z,5.06
2022-12-26T08:14:54.848Z,5.00
2022-12-26T08:17:45.454Z,4.92
2022-12-26T08:20:35.277Z,4.95
2022-12-26T08:23:24.506Z,4.91
2022-12-26T08:26:20.794Z,5.17
2022-12-26T08:29:11.516Z,5.13
2022-12-26T08:32:00.960Z,5.06
2022-12-26T08:34:51.556Z,5.12
2022-12-26T08:37:40.839Z,5.17
2022-12-26T08:40:42.721Z,5.16
2022-12-26T08:46:42.917Z,5.28
2022-12-26T08:49:32.202Z,5.31
2022-12-26T08:52:22.883Z,5.22
2022-12-26T08:55:13.693Z,5.30
2022-12-26T08:58:02.933Z,5.26
2022-12-26T09:00:55.412Z,5.32
2022-12-26T09:03:45.716Z,5.36
2022-12-26T09:06:38.068Z,5.32
2022-12-26T09:09:29.052Z,5.41
2022-12-26T09:12:18.358Z,5.45
2022-12-26T09:15:08.623Z,5.47
2022-12-26T09:17:57.940Z,5.44
2022-12-26T09:20:47.188Z,5.45
2022-12-26T09:23:36.773Z,5.60
2022-12-26T09:26:27.693Z,5.44
2022-12-26T09:29:16.927Z,5.71
2022-12-26T09:32:06.941Z,5.65
2022-12-26T09:34:56.168Z,5.70
2022-12-26T09:37:45.845Z,5.65
2022-12-26T09:40:52.151Z,5.71
2022-12-26T09:43:59.905Z,5.73
2022-12-26T09:47:02.426Z,5.59
2022-12-26T09:49:57.991Z,5.57
2022-12-26T09:52:51.806Z,5.62
2022-12-26T09:55:46.352Z,5.57
2022-12-26T09:58:43.592Z,5.51
2022-12-26T10:01:37.861Z,5.52
2022-12-26T10:04:30.345Z,5.59
2022-12-26T10:07:29.580Z,5.58
2022-12-26T10:10:26.064Z,5.51
2022-12-26T10:13:32.488Z,5.54
2022-12-26T10:16:30.024Z,5.60
2022-12-26T10:19:36.566Z,5.76
2022-12-26T10:22:52.975Z,5.76
2022-12-26T10:25:52.584Z,5.91
2022-12-26T10:28:50.435Z,6.02
2022-12-26T10:31:47.345Z,5.98
2022-12-26T10:34:43.106Z,6.01
2022-12-26T10:37:39.045Z,6.08
2022-12-26T10:40:36.918Z,6.10
2022-12-26T10:43:31.548Z,5.80
2022-12-26T10:46:41.042Z,6.23
2022-12-26T10:49:30.866Z,6.22
2022-12-26T10:52:29.084Z,6.28
2022-12-26T10:55:29.094Z,6.29
2022-12-26T10:58:25.258Z,6.28
2022-12-26T11:01:37.008Z,6.36
2022-12-26T11:07:41.698Z,6.32
2022-12-26T11:10:31.493Z,6.35
2022-12-26T11:13:24.368Z,6.42
2022-12-26T11:16:14.139Z,6.37
2022-12-26T11:19:03.929Z,6.32
2022-12-26T11:21:53.189Z,6.41
2022-12-26T11:24:43.975Z,6.31
2022-12-26T11:27:33.964Z,6.21
2022-12-26T11:30:31.316Z,6.37
2022-12-26T11:33:27.073Z,6.37
2022-12-26T11:36:23.621Z,6.37
2022-12-26T11:39:24.230Z,6.43
2022-12-26T11:42:25.487Z,6.33
2022-12-26T11:45:21.898Z,6.37
2022-12-26T11:48:24.652Z,6.45
2022-12-26T11:51:14.723Z,6.50
2022-12-26T11:54:29.920Z,6.49
2022-12-26T11:57:28.955Z,6.56
2022-12-26T12:00:22.178Z,7.00
2022-12-26T12:03:16.585Z,7.66
2022-12-26T12:06:28.286Z,8.37
2022-12-26T12:09:27.340Z,8.83
2022-12-26T12:12:24.380Z,9.15
2022-12-26T12:15:24.076Z,9.32
2022-12-26T12:18:23.832Z,9.27
2022-12-26T12:21:28.514Z,8.96
2022-12-26T12:24:39.499Z,8.76
2022-12-26T12:27:33.254Z,8.27
2022-12-26T12:30:30.163Z,8.04
2022-12-26T12:33:39.772Z,7.76
2022-12-26T12:36:38.258Z,7.53
2022-12-26T12:39:46.398Z,7.33
2022-12-26T12:42:47.731Z,7.27
2022-12-26T12:45:50.757Z,7.24
2022-12-26T12:49:02.384Z,7.17
2022-12-26T12:52:11.223Z,7.13
2022-12-26T12:55:33.104Z,7.14
2022-12-26T12:58:30.313Z,7.19
2022-12-26T13:01:28.380Z,7.20
2022-12-26T13:04:25.512Z,7.32
2022-12-26T13:07:21.813Z,7.28
2022-12-26T13:10:20.742Z,7.27
2022-12-26T13:13:19.731Z,7.17
2022-12-26T13:16:15.200Z,7.23
2022-12-26T13:19:10.954Z,7.31
2022-12-26T13:22:06.437Z,7.23
2022-12-26T13:25:00.176Z,7.17
2022-12-26T13:27:52.734Z,7.24
2022-12-26T13:30:42.135Z,7.10
2022-12-26T13:33:32.757Z,7.14
2022-12-26T13:36:46.149Z,7.11
2022-12-26T13:39:42.322Z,7.07
2022-12-26T13:42:55.111Z,7.11
2022-12-26T13:45:57.488Z,7.17
2022-12-26T13:49:00.078Z,7.17
2022-12-26T13:52:01.161Z,7.06
2022-12-26T13:55:43.615Z,7.22
2022-12-26T13:58:54.135Z,7.28
2022-12-26T14:02:01.492Z,7.25
2022-12-26T14:05:06.587Z,7.16
2022-12-26T14:08:05.677Z,7.14
2022-12-26T14:11:10.185Z,7.10
2022-12-26T14:14:13.865Z,7.16
2022-12-26T14:17:17.034Z,7.23
2022-12-26T14:20:26.824Z,7.19
2022-12-26T14:23:45.792Z,7.21
2022-12-26T14:26:59.447Z,7.23
2022-12-26T14:29:58.671Z,7.22
2022-12-26T14:33:04.785Z,7.17
2022-12-26T14:36:06.825Z,7.10
2022-12-26T14:39:05.014Z,7.08
2022-12-26T14:42:43.090Z,7.19
2022-12-26T14:45:49.560Z,7.25
2022-12-26T14:48:56.643Z,7.24
2022-12-26T14:51:46.659Z,7.28
2022-12-26T14:54:50.778Z,7.34
2022-12-26T14:57:48.688Z,7.36
2022-12-26T15:00:40.019Z,7.33
2022-12-26T15:03:45.824Z,7.37
2022-12-26T15:07:14.070Z,7.29
2022-12-26T15:10:43.839Z,7.30
2022-12-26T15:14:48.031Z,7.31
2022-12-26T15:17:51.492Z,7.25
2022-12-26T15:21:29.359Z,7.14
2022-12-26T15:29:06.468Z,7.19
2022-12-26T15:32:15.364Z,7.13
2022-12-26T15:35:22.709Z,7.02
2022-12-26T15:38:27.186Z,6.88
2022-12-26T15:41:28.025Z,6.86
2022-12-26T15:44:29.676Z,6.84
2022-12-26T15:47:28.618Z,6.84
2022-12-26T15:50:28.219Z,6.77
2022-12-26T15:53:30.601Z,6.64
2022-12-26T15:56:46.082Z,6.60
2022-12-26T16:00:10.083Z,6.65
2022-12-26T16:03:30.600Z,6.59
2022-12-26T16:06:44.141Z,6.50
2022-12-26T16:09:43.746Z,6.39
2022-12-26T16:12:40.837Z,6.35
2022-12-26T16:15:30.906Z,6.34
2022-12-26T16:18:22.831Z,6.36
2022-12-26T16:21:31.965Z,6.39
2022-12-26T16:24:23.083Z,6.31
2022-12-26T16:27:19.798Z,6.25
2022-12-26T16:30:17.885Z,6.26
2022-12-26T16:33:07.493Z,6.36
2022-12-26T16:36:00.933Z,6.31
2022-12-26T16:38:50.919Z,6.26
2022-12-26T16:42:04.949Z,6.28
2022-12-26T16:44:57.516Z,6.31
2022-12-26T16:47:47.681Z,6.33
2022-12-26T16:50:47.666Z,6.34
2022-12-26T16:53:45.677Z,6.34
2022-12-26T16:56:35.956Z,6.30
2022-12-26T16:59:30.160Z,6.32
2022-12-26T17:02:26.627Z,6.33
2022-12-26T17:05:23.620Z,6.35
2022-12-26T17:08:16.323Z,6.35
2022-12-26T17:11:05.694Z,6.22
2022-12-26T17:13:56.441Z,6.22
2022-12-26T17:16:47.092Z,6.27
2022-12-26T17:19:38.164Z,6.16
2022-12-26T17:22:32.656Z,6.20
2022-12-26T17:25:27.825Z,6.16
2022-12-26T17:28:25.400Z,6.11
2022-12-26T17:31:20.480Z,6.06
2022-12-26T17:34:20.905Z,6.04
2022-12-26T17:37:21.881Z,6.08
2022-12-26T17:40:27.406Z,6.10
2022-12-26T17:43:25.213Z,6.10
2022-12-26T17:46:18.067Z,6.25
2022-12-26T17:49:07.507Z,6.26
2022-12-26T17:52:01.769Z,6.29
2022-12-26T17:54:52.438Z,6.34
2022-12-26T17:57:41.724Z,6.23
2022-12-26T18:00:31.302Z,6.36
2022-12-26T18:03:21.105Z,6.23
2022-12-26T18:06:16.615Z,6.44
2022-12-26T18:09:08.206Z,6.32
2022-12-26T18:11:57.715Z,6.34
2022-12-26T18:14:47.068Z,6.29
2022-12-26T18:17:36.386Z,6.37
2022-12-26T18:20:29.041Z,6.25
2022-12-26T18:23:18.458Z,6.26
2022-12-26T18:26:17.695Z,6.20
2022-12-26T18:29:07.334Z,6.12
2022-12-26T18:31:56.657Z,6.11
2022-12-26T18:34:46.054Z,6.19
2022-12-26T18:37:35.342Z,6.17
2022-12-26T18:40:36.269Z,6.15
2022-12-26T18:43:26.957Z,6.07
2022-12-26T18:46:18.994Z,6.04
2022-12-26T18:49:08.423Z,6.16
2022-12-26T18:51:58.116Z,6.17
2022-12-26T18:54:47.414Z,6.20
2022-12-26T18:57:37.516Z,6.31
2022-12-26T19:00:28.384Z,6.37
2022-12-26T19:03:17.637Z,6.41
2022-12-26T19:06:07.769Z,6.29
2022-12-26T19:08:58.600Z,6.26
2022-12-26T19:11:47.911Z,6.25
2022-12-26T19:14:37.418Z,6.26
2022-12-26T19:17:28.312Z,6.04
2022-12-26T19:20:23.297Z,5.99
2022-12-26T19:23:12.845Z,6.05
2022-12-26T19:26:02.095Z,6.07
2022-12-26T19:28:53.481Z,5.97
2022-12-26T19:31:43.405Z,5.98
2022-12-26T19:34:34.368Z,5.94
2022-12-26T19:37:23.731Z,5.90
2022-12-26T19:40:18.393Z,5.82
2022-12-26T19:43:10.588Z,5.78
2022-12-26T19:46:04.051Z,5.79
2022-12-26T19:48:54.009Z,5.84
2022-12-26T19:51:44.900Z,5.85
2022-12-26T19:54:34.252Z,5.78
2022-12-26T19:57:23.629Z,5.81
2022-12-26T20:00:14.076Z,5.79
2022-12-26T20:03:03.526Z,5.75
2022-12-26T20:05:52.807Z,5.84
2022-12-26T20:08:45.413Z,5.79
2022-12-26T20:11:37.339Z,5.81
2022-12-26T20:14:28.427Z,5.81
2022-12-26T20:17:17.863Z,5.79
2022-12-26T20:20:08.591Z,5.70
2022-12-26T20:22:57.912Z,5.76
2022-12-26T20:25:48.646Z,5.71
2022-12-26T20:28:38.443Z,5.67
2022-12-26T20:31:28.091Z,5.64
2022-12-26T20:34:19.272Z,5.67
2022-12-26T20:37:08.627Z,5.73
2022-12-26T20:39:59.272Z,5.70
2022-12-26T20:42:50.012Z,5.67
2022-12-26T20:45:39.487Z,5.64
2022-12-26T20:48:28.834Z,5.58
2022-12-26T20:51:24.769Z,5.58
2022-12-26T20:54:16.165Z,5.58
2022-12-26T20:57:05.589Z,5.49
2022-12-26T20:59:56.356Z,5.59
2022-12-26T21:02:45.852Z,5.54
2022-12-26T21:05:35.303Z,5.58
2022-12-26T21:08:24.586Z,5.61
2022-12-26T21:11:17.107Z,5.57
2022-12-26T21:14:09.318Z,5.52
2022-12-26T21:17:00.633Z,5.55
2022-12-26T21:19:49.928Z,5.56
2022-12-26T21:22:39.436Z,5.55
2022-12-26T21:25:28.764Z,5.51
2022-12-26T21:28:18.457Z,5.52
2022-12-26T21:31:09.286Z,5.42
2022-12-26T21:34:01.791Z,5.40
2022-12-26T21:37:05.416Z,5.36
2022-12-26T21:39:54.891Z,5.36
2022-12-26T21:42:44.281Z,5.32
2022-12-26T21:45:33.564Z,5.26
2022-12-26T21:48:22.826Z,5.27
2022-12-26T21:51:13.543Z,5.22
2022-12-26T21:54:16.643Z,5.16
2022-12-26T21:57:05.976Z,5.22
2022-12-26T21:59:58.789Z,5.23
2022-12-26T22:03:06.340Z,5.27
2022-12-26T22:05:55.946Z,5.33
2022-12-26T22:08:46.989Z,5.34
2022-12-26T22:11:54.018Z,5.39
2022-12-26T22:14:43.278Z,5.31
2022-12-26T22:17:32.652Z,5.36
2022-12-26T22:20:21.919Z,5.38
2022-12-26T22:23:11.561Z,5.42
2022-12-26T22:26:02.827Z,5.39
2022-12-26T22:28:52.336Z,5.43
2022-12-26T22:31:41.625Z,5.41
2022-12-26T22:34:31.015Z,5.38
2022-12-26T22:37:20.251Z,5.50
2022-12-26T22:40:11.568Z,5.44
2022-12-26T22:43:02.232Z,5.39
2022-12-26T22:45:51.785Z,5.48
2022-12-26T22:48:41.695Z,5.45
2022-12-26T22:51:31.311Z,5.54
2022-12-26T22:54:20.574Z,5.55
2022-12-26T22:57:10.217Z,5.40
2022-12-26T23:00:09.568Z,5.46
2022-12-26T23:02:59.603Z,5.51
2022-12-26T23:05:49.787Z,5.59
2022-12-26T23:08:39.723Z,5.40
2022-12-26T23:11:35.140Z,5.48
2022-12-26T23:14:25.084Z,5.53
2022-12-26T23:17:39.183Z,5.53
2022-12-26T23:20:50.150Z,5.49
2022-12-26T23:23:40.453Z,5.63
2022-12-26T23:26:29.738Z,5.60
2022-12-26T23:29:39.759Z,5.63
2022-12-26T23:32:30.558Z,5.63
2022-12-26T23:35:22.035Z,5.54
2022-12-26T23:38:11.329Z,5.61
2022-12-26T23:41:00.668Z,5.67
2022-12-26T23:43:49.985Z,5.67
2022-12-26T23:46:40.697Z,5.68
2022-12-26T23:49:31.489Z,5.57
2022-12-26T23:52:26.752Z,5.63
2022-12-26T23:55:19.462Z,5.62
2022-12-26T23:58:08.806Z,5.63
